Terminal Aerodrome Forecast
Issued by NWS

Home | Current Version | Previous Version | Text Only | Print | Product List | Glossary On
Versions: 1 2 3 4 5 6 7 8 9 10 11 12
000
FTUS44 KTSA 261100
TAFBVO
TAF
KBVO 261139Z 2612/2712 16010KT P6SM SCT100
     FM261600 17012KT P6SM OVC035
      TEMPO 2621/2701 6SM -RA OVC020
     FM270100 18005KT 6SM -RA OVC015
     FM270400 32010KT P6SM OVC015=

USA.gov is the U.S. government's official web portal to all federal, state and local government web resources and services.